Corwith Cramer — WTF3319 — position and weather

sailwx.info

Track history (hours):
 
Tides and Currents Weather Stations Pressure Air Temp Water Temp Dewpoint Dewpoint Depression Visibility Wind Speed Wind Dir Waves Ship Positions

Oceanographic research ship Corwith Cramer (USA)

Ship's website: http://www.sea.edu/sea2000/AboutSEA2000/cramer.htm

Detailed information on ship capabilities available from University of Delaware's Ocean Information Center.

Owner: SEA EDUCATION ASSOCIATION, WOODS HOLE, MA. More information available from US FCC via Universal Licensing System and Coast Guard Vessel Documentation Center.

Last reported at 2019-Jun-14 20:38 UTC. Time now 2019-Jun-16 00:46 UTC.
Position N 41°14' W 071°19'.

Type: Sailing vessel. MMSI: 366724450.

Date/timePositionNaut miles runAvg speedWind from/ knotsBaromVisibWave heightAir tempDewpointWater temp
2019-Jun-14 20:38N 41°14' W 071°19'3 5.6
2019-Jun-14 20:07N 41°16' W 071°23'1 6.1
2019-Jun-14 20:00N 41°16' W 071°24'5 5.5
2019-Jun-14 19:08N 41°18' W 071°29'2 2.0
2019-Jun-14 18:14N 41°17' W 071°31'1 3.3
2019-Jun-14 17:57N 41°17' W 071°32'1 1.9
2019-Jun-14 17:24N 41°16' W 071°31'34 1.0
2019-Jun-13 06:12N 41°21' W 070°47'0 0.0
2019-Jun-13 06:00N 41°21' W 070°47'0 0.0
2019-Jun-13 05:24N 41°21' W 070°47'  
2019-Jun-09 11:08N 41°31' W 070°40'0 0.0
2019-Jun-09 10:50N 41°31' W 070°40'0 0.0
2019-Jun-09 05:08N 41°31' W 070°40'0 0.0
2019-Jun-08 05:37N 41°31' W 070°40'0 0.0
2019-Jun-08 05:19N 41°31' W 070°40'0 0.0
2019-Jun-08 04:55N 41°31' W 070°40'0 0.0
2019-Jun-08 04:22N 41°31' W 070°40'0 0.0
2019-Jun-08 03:55N 41°31' W 070°40'0 0.0
2019-Jun-08 03:28N 41°31' W 070°40'0 0.0
2019-Jun-08 02:55N 41°31' W 070°40'0 0.0
2019-Jun-08 02:28N 41°31' W 070°40'0 0.0
2019-Jun-08 01:58N 41°31' W 070°40'0 0.0
2019-Jun-08 01:07N 41°31' W 070°40'0 0.0
2019-Jun-08 00:58N 41°31' W 070°40'0 0.0
2019-Jun-08 00:28N 41°31' W 070°40'  
Track history (hours):
 
Tides and Currents Weather Stations Pressure Air Temp Water Temp Dewpoint Dewpoint Depression Visibility Wind Speed Wind Dir Waves Ship Positions

Oceanographic research ship Corwith Cramer (USA)

Ship's website: http://www.sea.edu/sea2000/AboutSEA2000/cramer.htm

Detailed information on ship capabilities available from University of Delaware's Ocean Information Center.

Owner: SEA EDUCATION ASSOCIATION, WOODS HOLE, MA. More information available from US FCC via Universal Licensing System and Coast Guard Vessel Documentation Center.

Last reported at 2019-Jun-14 20:38 UTC. Time now 2019-Jun-16 00:46 UTC.
Position N 41°14' W 071°19'.

Type: Sailing vessel. MMSI: 366724450.

Date/timePositionNaut miles runAvg speedWind from/ knotsBaromVisibWave heightAir tempDewpointWater temp
2019-Jun-14 20:38N 41°14' W 071°19'3 5.6
2019-Jun-14 20:07N 41°16' W 071°23'1 6.1
2019-Jun-14 20:00N 41°16' W 071°24'5 5.5
2019-Jun-14 19:08N 41°18' W 071°29'2 2.0
2019-Jun-14 18:14N 41°17' W 071°31'1 3.3
2019-Jun-14 17:57N 41°17' W 071°32'1 1.9
2019-Jun-14 17:24N 41°16' W 071°31'34 1.0
2019-Jun-13 06:12N 41°21' W 070°47'0 0.0
2019-Jun-13 06:00N 41°21' W 070°47'0 0.0
2019-Jun-13 05:24N 41°21' W 070°47'  
2019-Jun-09 11:08N 41°31' W 070°40'0 0.0
2019-Jun-09 10:50N 41°31' W 070°40'0 0.0
2019-Jun-09 05:08N 41°31' W 070°40'0 0.0
2019-Jun-08 05:37N 41°31' W 070°40'0 0.0
2019-Jun-08 05:19N 41°31' W 070°40'0 0.0
2019-Jun-08 04:55N 41°31' W 070°40'0 0.0
2019-Jun-08 04:22N 41°31' W 070°40'0 0.0
2019-Jun-08 03:55N 41°31' W 070°40'0 0.0
2019-Jun-08 03:28N 41°31' W 070°40'0 0.0
2019-Jun-08 02:55N 41°31' W 070°40'0 0.0
2019-Jun-08 02:28N 41°31' W 070°40'0 0.0
2019-Jun-08 01:58N 41°31' W 070°40'0 0.0
2019-Jun-08 01:07N 41°31' W 070°40'0 0.0
2019-Jun-08 00:58N 41°31' W 070°40'0 0.0
2019-Jun-08 00:28N 41°31' W 070°40'  

Dump ship's entire track history